Terminal Aerodrome Forecast
Issued by NWS Wilmington, OH

Current Version | Previous Version | Graphics & Text | Print | Product List | Glossary On
Versions: 1 2 3 4 5 6 7 8 9 10 11 12 13 14 15 16 17 18 19 20 21 22 23 24 25
000
FTUS41 KILN 020800 AAA
TAFCVG
TAF AMD
KCVG 020858Z 0209/0312 32012KT P6SM FEW015
     FM021600 36005KT P6SM SCT025 BKN200
     FM021800 04005KT P6SM SCT025 BKN150
     FM030300 09007KT P6SM SCT015 OVC100=

USA.gov is the U.S. government's official web portal to all federal, state and local government web resources and services.